Time;durP1;ratioP1;P1;durP2;ratioP2;P2;SDS_P1;SDS_P2;PMS_P1;PMS_P2;Temp;Humidity;BMP_temperature;BMP_pressure;BME280_temperature;BME280_humidity;BME280_pressure;Samples;Min_cycle;Max_cycle;Signal;HPM_P1;HPM_P2
2022/11/23 00:01:23;;;;;;;;;;;6.70;99.90;;;;;;5033954;28;19925;-83
2022/11/23 00:03:50;;;;;;;;;;;6.70;99.90;;;;;;5036155;28;19932;-83
2022/11/23 00:06:16;;;;;;;;;;;6.70;99.90;;;;;;5036538;28;19924;-84
2022/11/23 00:08:43;;;;;;;;;;;6.70;99.90;;;;;;5036350;28;19936;-83
2022/11/23 00:11:09;;;;;;;;;;;6.70;99.90;;;;;;5019048;28;19924;-83
2022/11/23 00:13:35;;;;;;;;;;;6.70;99.90;;;;;;5035363;28;19951;-84
2022/11/23 00:16:04;;;;;;;;;;;6.70;99.90;;;;;;5035766;28;19924;-84
2022/11/23 00:18:30;;;;;;;;;;;6.70;99.90;;;;;;5035725;28;19931;-84
2022/11/23 00:20:55;;;;;;;;;;;6.70;99.90;;;;;;5036479;28;20362;-83
2022/11/23 00:23:21;;;;;;;;;;;6.70;99.90;;;;;;5053326;28;20080;-83
2022/11/23 00:25:46;;;;;;;;;;;6.80;99.90;;;;;;5018939;28;19931;-83
2022/11/23 00:28:12;;;;;;;;;;;6.80;99.90;;;;;;5035258;28;19950;-83
2022/11/23 00:30:37;;;;;;;;;;;6.80;99.90;;;;;;5035281;28;19932;-83
2022/11/23 00:33:03;;;;;;;;;;;6.80;99.90;;;;;;5019943;28;20407;-83
2022/11/23 00:35:29;;;;;;;;;;;6.80;99.90;;;;;;5035698;28;20065;-83
2022/11/23 00:37:54;;;;;;;;;;;6.80;99.90;;;;;;5018732;28;19972;-84
2022/11/23 00:40:20;;;;;;;;;;;6.80;99.90;;;;;;5035496;28;19974;-84
2022/11/23 00:42:45;;;;;;;;;;;6.80;99.90;;;;;;5037541;28;19925;-84
2022/11/23 00:45:11;;;;;;;;;;;6.90;99.90;;;;;;5038426;28;19932;-83
2022/11/23 00:47:37;;;;;;;;;;;7.60;99.90;;;;;;5022719;28;19975;-83
2022/11/23 00:50:02;;;;;;;;;;;6.90;99.90;;;;;;5038758;28;19924;-83
2022/11/23 00:52:28;;;;;;;;;;;6.90;99.90;;;;;;5056297;28;20466;-83
2022/11/23 00:54:53;;;;;;;;;;;6.90;99.90;;;;;;5039129;28;19931;-83
2022/11/23 00:57:19;;;;;;;;;;;6.90;99.90;;;;;;5022181;28;19925;-83
2022/11/23 00:59:44;;;;;;;;;;;6.90;99.90;;;;;;5056283;28;19925;-83
2022/11/23 01:02:10;;;;;;;;;;;6.90;99.90;;;;;;5021445;28;20323;-83
2022/11/23 01:04:37;;;;;;;;;;;6.90;99.90;;;;;;5038339;28;19931;-83
2022/11/23 01:07:03;;;;;;;;;;;6.90;99.90;;;;;;5055819;28;19928;-84
2022/11/23 01:09:28;;;;;;;;;;;6.90;99.90;;;;;;5038270;28;20319;-83
2022/11/23 01:11:54;;;;;;;;;;;6.90;99.90;;;;;;5021809;28;19932;-83
2022/11/23 01:14:20;;;;;;;;;;;6.90;99.90;;;;;;5055872;28;19925;-83
2022/11/23 01:16:46;;;;;;;;;;;7.00;99.90;;;;;;5022066;28;19925;-83
2022/11/23 01:19:13;;;;;;;;;;;6.90;99.90;;;;;;5021671;28;19925;-84
2022/11/23 01:21:38;;;;;;;;;;;7.00;99.90;;;;;;5055506;28;20384;-84
2022/11/23 01:24:05;;;;;;;;;;;7.00;99.90;;;;;;5022014;28;19925;-84
2022/11/23 01:26:31;;;;;;;;;;;7.00;99.90;;;;;;5055745;28;19925;-83
2022/11/23 01:28:56;;;;;;;;;;;7.00;99.90;;;;;;5037770;28;20377;-83
2022/11/23 01:31:22;;;;;;;;;;;7.00;99.90;;;;;;5021232;28;19924;-83
2022/11/23 01:33:52;;;;;;;;;;;7.00;99.90;;;;;;5055534;28;19931;-83
2022/11/23 01:36:19;;;;;;;;;;;7.00;99.90;;;;;;5055488;28;20053;-83
2022/11/23 01:38:45;;;;;;;;;;;7.00;99.90;;;;;;5056436;28;19924;-84
2022/11/23 01:41:18;;;;;;;;;;;7.00;99.90;;;;;;5037688;28;20344;-83
2022/11/23 01:43:44;;;;;;;;;;;7.00;99.90;;;;;;5055412;28;20437;-83
2022/11/23 01:46:10;;;;;;;;;;;7.00;99.90;;;;;;5038016;28;20012;-83
2022/11/23 01:48:41;;;;;;;;;;;7.00;99.90;;;;;;5038272;28;20361;-83
2022/11/23 01:51:27;;;;;;;;;;;7.00;99.90;;;;;;5037399;28;19925;-84
2022/11/23 01:54:03;;;;;;;;;;;7.10;99.90;;;;;;5036409;28;19943;-83
2022/11/23 01:56:31;;;;;;;;;;;7.10;99.90;;;;;;5055205;28;19925;-84
2022/11/23 01:58:59;;;;;;;;;;;7.10;99.90;;;;;;5055119;28;19932;-82
2022/11/23 02:01:24;;;;;;;;;;;7.10;99.90;;;;;;5038082;28;19925;-83
2022/11/23 02:03:50;;;;;;;;;;;7.10;99.90;;;;;;5004601;28;19925;-83
2022/11/23 02:06:17;;;;;;;;;;;7.10;99.90;;;;;;5055783;28;20311;-83
2022/11/23 02:08:44;;;;;;;;;;;7.10;99.90;;;;;;5038165;28;19951;-83
2022/11/23 02:11:11;;;;;;;;;;;7.10;99.90;;;;;;5036988;28;20361;-82
2022/11/23 02:13:37;;;;;;;;;;;7.10;99.90;;;;;;5021201;28;20321;-83
2022/11/23 02:16:03;;;;;;;;;;;7.10;99.90;;;;;;5054918;28;19925;-83
2022/11/23 02:18:30;;;;;;;;;;;7.10;99.90;;;;;;5037088;28;20299;-83
2022/11/23 02:20:56;;;;;;;;;;;7.10;99.90;;;;;;5020663;28;20011;-83
2022/11/23 02:23:25;;;;;;;;;;;7.10;99.90;;;;;;5036697;28;19929;-82
2022/11/23 02:25:57;;;;;;;;;;;7.10;99.90;;;;;;5036847;28;20043;-82
2022/11/23 02:28:25;;;;;;;;;;;7.10;99.90;;;;;;5020687;28;19924;-82
2022/11/23 02:30:52;;;;;;;;;;;7.10;99.90;;;;;;5054406;28;19928;-83
2022/11/23 02:33:18;;;;;;;;;;;7.30;99.90;;;;;;5054537;28;19932;-83
2022/11/23 02:35:51;;;;;;;;;;;7.10;99.90;;;;;;5054323;28;19925;-83
2022/11/23 02:38:17;;;;;;;;;;;7.10;99.90;;;;;;5036554;28;19947;-83
2022/11/23 02:40:43;;;;;;;;;;;7.10;99.90;;;;;;5020461;28;19952;-83
2022/11/23 02:43:08;;;;;;;;;;;7.10;99.90;;;;;;5036753;28;19924;-83
2022/11/23 02:45:44;;;;;;;;;;;7.10;99.90;;;;;;5020923;28;19925;-83
2022/11/23 02:48:10;;;;;;;;;;;7.10;99.90;;;;;;5036314;28;19925;-83
2022/11/23 02:50:36;;;;;;;;;;;7.10;99.90;;;;;;5054463;28;20341;-83
2022/11/23 02:53:01;;;;;;;;;;;7.10;99.90;;;;;;5036339;28;19932;-83
2022/11/23 02:55:27;;;;;;;;;;;7.10;99.90;;;;;;5037164;28;19924;-83
2022/11/23 02:57:53;;;;;;;;;;;7.20;99.90;;;;;;5054018;28;20034;-83
2022/11/23 03:00:18;;;;;;;;;;;7.10;99.90;;;;;;5036333;28;19974;-83
2022/11/23 03:02:44;;;;;;;;;;;7.10;99.90;;;;;;5035892;28;19968;-83
2022/11/23 03:05:10;;;;;;;;;;;7.20;99.90;;;;;;5019100;28;19925;-83
2022/11/23 03:07:35;;;;;;;;;;;7.20;99.90;;;;;;5053754;28;19970;-82
2022/11/23 03:10:01;;;;;;;;;;;7.20;99.90;;;;;;5036188;28;19925;-83
2022/11/23 03:12:27;;;;;;;;;;;7.10;99.90;;;;;;5053824;28;19925;-83
2022/11/23 03:14:52;;;;;;;;;;;7.20;99.90;;;;;;5036703;28;20230;-83
2022/11/23 03:17:18;;;;;;;;;;;7.20;99.90;;;;;;5053752;28;19978;-83
2022/11/23 03:19:43;;;;;;;;;;;7.10;99.90;;;;;;5037095;28;19963;-83
2022/11/23 03:22:09;;;;;;;;;;;7.20;99.90;;;;;;5053585;28;19948;-83
2022/11/23 03:24:35;;;;;;;;;;;7.20;99.90;;;;;;5035947;28;19931;-84
2022/11/23 03:27:01;;;;;;;;;;;7.10;99.90;;;;;;5036071;28;20376;-84
2022/11/23 03:29:26;;;;;;;;;;;7.20;99.90;;;;;;5019237;28;19925;-84
2022/11/23 03:31:52;;;;;;;;;;;7.20;99.90;;;;;;5035820;28;19925;-83
2022/11/23 03:34:18;;;;;;;;;;;7.20;99.90;;;;;;5035727;28;19931;-83
2022/11/23 03:36:44;;;;;;;;;;;7.20;99.90;;;;;;5036060;28;19929;-83
2022/11/23 03:39:09;;;;;;;;;;;7.20;99.90;;;;;;5053402;28;20371;-83
2022/11/23 03:41:35;;;;;;;;;;;7.20;99.90;;;;;;5019221;28;19974;-83
2022/11/23 03:44:00;;;;;;;;;;;7.20;99.90;;;;;;5035893;28;19994;-83
2022/11/23 03:46:26;;;;;;;;;;;7.20;99.90;;;;;;5054066;28;19964;-83
2022/11/23 03:48:51;;;;;;;;;;;7.20;99.90;;;;;;5002974;28;20377;-84
2022/11/23 03:51:17;;;;;;;;;;;7.20;99.90;;;;;;5035763;28;20015;-83
2022/11/23 03:53:43;;;;;;;;;;;7.30;99.90;;;;;;5053288;28;19974;-84
2022/11/23 03:56:08;;;;;;;;;;;7.20;99.90;;;;;;5036283;28;19925;-83
2022/11/23 03:58:34;;;;;;;;;;;7.40;99.90;;;;;;5019496;28;20373;-83
2022/11/23 04:01:00;;;;;;;;;;;7.20;99.90;;;;;;5035982;28;19925;-83
2022/11/23 04:03:25;;;;;;;;;;;7.20;99.90;;;;;;5019110;28;19925;-83
2022/11/23 04:05:51;;;;;;;;;;;7.50;99.90;;;;;;5035780;28;19929;-83
2022/11/23 04:08:17;;;;;;;;;;;7.20;99.90;;;;;;5036190;28;19971;-83
2022/11/23 04:10:42;;;;;;;;;;;7.20;99.90;;;;;;5053147;28;19931;-84
2022/11/23 04:13:08;;;;;;;;;;;7.20;99.90;;;;;;5019966;28;19924;-84
2022/11/23 04:15:33;;;;;;;;;;;7.20;99.90;;;;;;5019973;28;20291;-84
2022/11/23 04:17:59;;;;;;;;;;;7.20;99.90;;;;;;5038495;28;20279;-83
2022/11/23 04:20:24;;;;;;;;;;;7.20;99.90;;;;;;5023784;28;20038;-84
2022/11/23 04:22:50;;;;;;;;;;;7.20;99.90;;;;;;5039675;28;19972;-83
2022/11/23 04:25:16;;;;;;;;;;;7.20;99.90;;;;;;5057437;28;20246;-84
2022/11/23 04:27:42;;;;;;;;;;;7.20;99.90;;;;;;5039468;28;19951;-83
2022/11/23 04:30:08;;;;;;;;;;;7.10;99.90;;;;;;5039784;28;19925;-84
2022/11/23 04:32:33;;;;;;;;;;;7.20;99.90;;;;;;5041136;28;19936;-83
2022/11/23 04:34:59;;;;;;;;;;;7.20;99.90;;;;;;5058526;28;20307;-84
2022/11/23 04:37:25;;;;;;;;;;;7.30;99.90;;;;;;5040394;28;19931;-83
2022/11/23 04:39:50;;;;;;;;;;;7.20;99.90;;;;;;5039556;28;19948;-84
2022/11/23 04:42:16;;;;;;;;;;;7.20;99.90;;;;;;5039176;28;19924;-83
2022/11/23 04:44:41;;;;;;;;;;;7.20;99.90;;;;;;5039165;28;19929;-83
2022/11/23 04:47:08;;;;;;;;;;;7.20;99.90;;;;;;5039442;28;20300;-83
2022/11/23 04:49:33;;;;;;;;;;;7.20;99.90;;;;;;5022312;28;19928;-83
2022/11/23 04:51:59;;;;;;;;;;;7.20;99.90;;;;;;5056556;28;19925;-84
2022/11/23 04:54:24;;;;;;;;;;;7.20;99.90;;;;;;5039953;28;19988;-83
2022/11/23 04:56:50;;;;;;;;;;;7.20;99.90;;;;;;5056735;28;19975;-83
2022/11/23 04:59:16;;;;;;;;;;;7.20;99.90;;;;;;5057336;28;20067;-83
2022/11/23 05:01:41;;;;;;;;;;;7.40;99.90;;;;;;5056542;28;20300;-83
2022/11/23 05:04:07;;;;;;;;;;;7.10;99.90;;;;;;5022197;28;19932;-84
2022/11/23 05:06:32;;;;;;;;;;;7.10;99.90;;;;;;5021976;28;19929;-83
2022/11/23 05:08:58;;;;;;;;;;;7.10;99.90;;;;;;5038683;28;19925;-83
2022/11/23 05:11:23;;;;;;;;;;;7.10;99.90;;;;;;5005452;28;20369;-84
2022/11/23 05:13:49;;;;;;;;;;;7.10;99.90;;;;;;5038505;28;19976;-83
2022/11/23 05:16:15;;;;;;;;;;;7.10;99.90;;;;;;5021665;28;20277;-83
2022/11/23 05:18:40;;;;;;;;;;;7.10;99.90;;;;;;5038606;28;20024;-83
2022/11/23 05:21:06;;;;;;;;;;;7.10;99.90;;;;;;5056175;28;19925;-84
2022/11/23 05:23:31;;;;;;;;;;;7.10;99.90;;;;;;5021856;28;19983;-84
2022/11/23 05:25:57;;;;;;;;;;;7.50;99.90;;;;;;5055893;28;20357;-84
2022/11/23 05:28:23;;;;;;;;;;;7.30;99.90;;;;;;5036718;28;19968;-84
2022/11/23 05:30:48;;;;;;;;;;;7.20;99.90;;;;;;5021421;28;20301;-85
2022/11/23 05:33:14;;;;;;;;;;;7.20;99.90;;;;;;5021851;28;19925;-84
2022/11/23 05:35:39;;;;;;;;;;;7.20;99.90;;;;;;5038537;28;19924;-83
2022/11/23 05:38:05;;;;;;;;;;;7.20;99.90;;;;;;5038073;28;19947;-84
2022/11/23 05:40:31;;;;;;;;;;;7.20;99.90;;;;;;5056189;28;19967;-83
2022/11/23 05:42:57;;;;;;;;;;;7.30;99.90;;;;;;5021499;28;19932;-83
2022/11/23 05:45:23;;;;;;;;;;;7.30;99.90;;;;;;5038496;28;19924;-83
2022/11/23 05:47:50;;;;;;;;;;;7.30;99.90;;;;;;5021989;28;19924;-83
2022/11/23 05:50:15;;;;;;;;;;;7.30;99.90;;;;;;5055485;28;20019;-83
2022/11/23 05:52:41;;;;;;;;;;;7.30;99.90;;;;;;5037855;28;20387;-83
2022/11/23 05:55:07;;;;;;;;;;;7.30;99.90;;;;;;5055495;28;19925;-84
2022/11/23 05:57:32;;;;;;;;;;;7.30;99.90;;;;;;5021510;28;20012;-83
2022/11/23 05:59:58;;;;;;;;;;;7.30;99.90;;;;;;5021699;28;19975;-83
2022/11/23 06:02:23;;;;;;;;;;;7.30;99.90;;;;;;5037834;28;19960;-84
2022/11/23 06:04:49;;;;;;;;;;;7.30;99.90;;;;;;5055539;28;20288;-83
2022/11/23 06:07:15;;;;;;;;;;;7.30;99.90;;;;;;5004705;28;19925;-83
2022/11/23 06:09:40;;;;;;;;;;;7.30;99.90;;;;;;5037581;28;19971;-83
2022/11/23 06:12:06;;;;;;;;;;;7.30;99.90;;;;;;5055046;28;19972;-84
2022/11/23 06:14:31;;;;;;;;;;;7.30;99.90;;;;;;5055821;28;19924;-83
2022/11/23 06:16:57;;;;;;;;;;;7.50;99.90;;;;;;5037155;28;20258;-84
2022/11/23 06:19:22;;;;;;;;;;;7.30;99.90;;;;;;5037509;28;19929;-83
2022/11/23 06:21:48;;;;;;;;;;;7.30;99.90;;;;;;5038129;28;20379;-83
2022/11/23 06:24:14;;;;;;;;;;;7.60;99.90;;;;;;5037598;28;19946;-83
2022/11/23 06:26:39;;;;;;;;;;;7.30;99.90;;;;;;5036963;28;20327;-84
2022/11/23 06:29:05;;;;;;;;;;;7.30;99.90;;;;;;5021617;28;19925;-83
2022/11/23 06:31:30;;;;;;;;;;;7.30;99.90;;;;;;5036801;28;19924;-83
2022/11/23 06:33:56;;;;;;;;;;;7.30;99.90;;;;;;5037202;28;19970;-83
2022/11/23 06:36:21;;;;;;;;;;;7.30;99.90;;;;;;5037759;28;19989;-83
2022/11/23 06:38:47;;;;;;;;;;;7.30;99.90;;;;;;5021372;28;19940;-83
2022/11/23 06:41:13;;;;;;;;;;;7.20;99.90;;;;;;5037452;28;19983;-83
2022/11/23 06:43:38;;;;;;;;;;;7.20;99.90;;;;;;5036664;28;19932;-83
2022/11/23 06:46:05;;;;;;;;;;;7.30;99.90;;;;;;5020507;28;19970;-83
2022/11/23 06:48:31;;;;;;;;;;;7.30;99.90;;;;;;5037696;28;20031;-83
2022/11/23 06:50:58;;;;;;;;;;;7.20;99.90;;;;;;5054040;28;20019;-83
2022/11/23 06:53:23;;;;;;;;;;;7.20;99.90;;;;;;5020317;28;19928;-83
2022/11/23 06:55:49;;;;;;;;;;;7.20;99.90;;;;;;5054281;28;19993;-83
2022/11/23 06:58:15;;;;;;;;;;;7.20;99.90;;;;;;5036670;28;19925;-83
2022/11/23 07:00:41;;;;;;;;;;;7.20;99.90;;;;;;5036388;28;19929;-83
2022/11/23 07:03:15;;;;;;;;;;;7.20;99.90;;;;;;5020383;28;19925;-84
2022/11/23 07:05:41;;;;;;;;;;;7.20;99.90;;;;;;5036452;28;19975;-85
2022/11/23 07:08:06;;;;;;;;;;;7.20;99.90;;;;;;5035934;28;19925;-84
2022/11/23 07:10:32;;;;;;;;;;;7.20;99.90;;;;;;5036345;28;19972;-85
2022/11/23 07:13:08;;;;;;;;;;;7.20;99.90;;;;;;5003837;28;19924;-83
2022/11/23 07:15:34;;;;;;;;;;;7.10;99.90;;;;;;5036112;28;19935;-84
2022/11/23 07:17:59;;;;;;;;;;;7.10;99.90;;;;;;5036512;28;19924;-84
2022/11/23 07:20:25;;;;;;;;;;;7.10;99.90;;;;;;5053664;28;20011;-84
2022/11/23 07:23:09;;;;;;;;;;;7.10;99.90;;;;;;5019865;28;19928;-83
2022/11/23 07:25:35;;;;;;;;;;;7.10;99.90;;;;;;5020186;28;19925;-83
2022/11/23 07:28:01;;;;;;;;;;;7.10;99.90;;;;;;5019864;28;20007;-83
2022/11/23 07:30:28;;;;;;;;;;;7.10;99.90;;;;;;5036000;28;19986;-84
2022/11/23 07:32:57;;;;;;;;;;;7.10;99.90;;;;;;5053776;28;19984;-84
2022/11/23 07:35:23;;;;;;;;;;;7.10;99.90;;;;;;5036272;28;19929;-84
2022/11/23 07:37:49;;;;;;;;;;;7.10;99.90;;;;;;5004065;28;19932;-83
2022/11/23 07:40:14;;;;;;;;;;;7.10;99.90;;;;;;5019868;28;19924;-83
2022/11/23 07:42:40;;;;;;;;;;;7.10;99.90;;;;;;5019967;28;19929;-83
2022/11/23 07:45:06;;;;;;;;;;;7.10;99.90;;;;;;5003451;28;19925;-83
2022/11/23 07:47:32;;;;;;;;;;;7.00;99.90;;;;;;5035889;28;20296;-84
2022/11/23 07:49:57;;;;;;;;;;;7.10;99.90;;;;;;5053652;28;19931;-84
2022/11/23 07:52:23;;;;;;;;;;;7.10;99.90;;;;;;5055593;28;20015;-83
2022/11/23 07:54:48;;;;;;;;;;;7.10;99.90;;;;;;5039964;28;19929;-83
2022/11/23 07:57:14;;;;;;;;;;;7.10;99.90;;;;;;5023597;28;19969;-83
2022/11/23 07:59:40;;;;;;;;;;;7.10;99.90;;;;;;5023251;28;19932;-83
2022/11/23 08:02:05;;;;;;;;;;;7.10;99.90;;;;;;5039950;28;19925;-83
2022/11/23 08:04:31;;;;;;;;;;;7.10;99.90;;;;;;5058193;28;19936;-83
2022/11/23 08:06:57;;;;;;;;;;;7.20;99.90;;;;;;5057335;28;19932;-83
2022/11/23 08:09:22;;;;;;;;;;;7.20;99.90;;;;;;5040040;28;19968;-83
2022/11/23 08:11:48;;;;;;;;;;;7.30;99.90;;;;;;5039541;28;19974;-83
2022/11/23 08:14:13;;;;;;;;;;;7.20;99.90;;;;;;5040563;28;19929;-83
2022/11/23 08:16:39;;;;;;;;;;;7.20;99.90;;;;;;5039748;28;19986;-84
2022/11/23 08:19:04;;;;;;;;;;;7.20;99.90;;;;;;5039669;28;19924;-84
2022/11/23 08:21:30;;;;;;;;;;;7.30;99.90;;;;;;5023088;28;19925;-83
2022/11/23 08:23:56;;;;;;;;;;;7.30;99.90;;;;;;5039806;28;19975;-83
2022/11/23 08:26:21;;;;;;;;;;;7.30;99.90;;;;;;5039484;28;19925;-84
2022/11/23 08:28:47;;;;;;;;;;;7.30;99.90;;;;;;5039544;28;20015;-84
2022/11/23 08:31:16;;;;;;;;;;;7.40;99.90;;;;;;5039121;28;19928;-84
2022/11/23 08:33:41;;;;;;;;;;;7.40;99.90;;;;;;5039461;28;19972;-84
2022/11/23 08:36:07;;;;;;;;;;;7.40;99.90;;;;;;5039097;28;19979;-83
2022/11/23 08:38:34;;;;;;;;;;;7.40;99.90;;;;;;5039394;28;19929;-83
2022/11/23 08:41:00;;;;;;;;;;;7.40;99.90;;;;;;5039229;28;19978;-84
2022/11/23 08:43:26;;;;;;;;;;;7.40;99.90;;;;;;5040357;28;19928;-83
2022/11/23 08:45:56;;;;;;;;;;;7.50;99.90;;;;;;5022584;28;19988;-83
2022/11/23 08:48:24;;;;;;;;;;;7.50;99.90;;;;;;5057801;28;20365;-84
2022/11/23 08:50:50;;;;;;;;;;;7.50;99.90;;;;;;5056987;28;19951;-83
2022/11/23 08:53:16;;;;;;;;;;;7.50;99.90;;;;;;5038588;28;20270;-84
2022/11/23 08:55:42;;;;;;;;;;;7.60;99.90;;;;;;5057059;28;20016;-84
2022/11/23 08:58:07;;;;;;;;;;;7.60;99.90;;;;;;5038798;28;19925;-85
2022/11/23 09:00:33;;;;;;;;;;;7.60;99.90;;;;;;5022621;28;20418;-83
2022/11/23 09:02:59;;;;;;;;;;;7.70;99.90;;;;;;5021808;28;19947;-83
2022/11/23 09:05:25;;;;;;;;;;;7.70;99.90;;;;;;5038545;28;19971;-83
2022/11/23 09:07:51;;;;;;;;;;;7.70;99.90;;;;;;5038593;28;19970;-84
2022/11/23 09:10:16;;;;;;;;;;;7.80;99.90;;;;;;5038470;28;20381;-86
2022/11/23 09:12:42;;;;;;;;;;;7.80;99.90;;;;;;5038666;28;19925;-85
2022/11/23 09:15:08;;;;;;;;;;;7.80;99.90;;;;;;5038683;28;20432;-84
2022/11/23 09:17:34;;;;;;;;;;;7.80;99.90;;;;;;5021691;28;19925;-84
2022/11/23 09:19:59;;;;;;;;;;;7.90;99.90;;;;;;5038689;28;20019;-85
2022/11/23 09:22:25;;;;;;;;;;;8.00;99.90;;;;;;5038352;28;19924;-84
2022/11/23 09:24:51;;;;;;;;;;;8.00;99.90;;;;;;5038189;28;19929;-84
2022/11/23 09:27:17;;;;;;;;;;;8.00;99.90;;;;;;5038481;28;19931;-84
2022/11/23 09:29:42;;;;;;;;;;;8.10;99.90;;;;;;5055834;28;20378;-84
2022/11/23 09:32:08;;;;;;;;;;;8.20;99.90;;;;;;5005855;28;19924;-84
2022/11/23 09:34:34;;;;;;;;;;;8.20;99.90;;;;;;5038045;28;20454;-84
2022/11/23 09:37:00;;;;;;;;;;;8.70;99.90;;;;;;5038202;28;20021;-84
2022/11/23 09:39:25;;;;;;;;;;;8.50;99.90;;;;;;5038231;28;20020;-84
2022/11/23 09:41:54;;;;;;;;;;;8.50;99.90;;;;;;5021368;28;19940;-83
2022/11/23 09:44:38;;;;;;;;;;;8.60;99.90;;;;;;5038511;28;19925;-84
2022/11/23 09:47:22;;;;;;;;;;;8.50;99.90;;;;;;5037974;28;19925;-84
2022/11/23 09:49:48;;;;;;;;;;;8.60;99.90;;;;;;5021900;28;19947;-85
2022/11/23 09:52:15;;;;;;;;;;;8.50;99.90;;;;;;5038063;28;20356;-84
2022/11/23 09:54:42;;;;;;;;;;;8.50;99.90;;;;;;5055121;28;19929;-85
2022/11/23 09:57:10;;;;;;;;;;;8.50;99.90;;;;;;5038632;28;19932;-84
2022/11/23 09:59:39;;;;;;;;;;;8.50;99.90;;;;;;5055548;28;19925;-85
2022/11/23 10:02:04;;;;;;;;;;;8.50;99.90;;;;;;5037770;28;19971;-85
2022/11/23 10:04:34;;;;;;;;;;;8.50;99.90;;;;;;5036774;28;19924;-85
2022/11/23 10:07:09;;;;;;;;;;;8.50;99.90;;;;;;5037524;28;19932;-85
2022/11/23 10:09:41;;;;;;;;;;;8.40;99.90;;;;;;5037788;28;19932;-85
2022/11/23 10:12:24;;;;;;;;;;;8.50;99.90;;;;;;5037732;28;19931;-85
2022/11/23 10:15:00;;;;;;;;;;;8.50;99.90;;;;;;5036762;28;19932;-85
2022/11/23 10:17:47;;;;;;;;;;;8.50;99.90;;;;;;5020940;28;19925;-85
2022/11/23 10:20:18;;;;;;;;;;;8.50;99.90;;;;;;5020537;28;20385;-84
2022/11/23 10:22:56;;;;;;;;;;;8.50;99.90;;;;;;5037171;28;20003;-85
2022/11/23 10:25:22;;;;;;;;;;;8.60;99.90;;;;;;5054822;28;19925;-85
2022/11/23 10:27:49;;;;;;;;;;;8.60;99.90;;;;;;5020776;28;19924;-85
2022/11/23 10:30:16;;;;;;;;;;;8.60;99.90;;;;;;5020426;28;19925;-85
2022/11/23 10:32:47;;;;;;;;;;;8.70;99.90;;;;;;5036903;28;19937;-85
2022/11/23 10:35:13;;;;;;;;;;;8.60;99.90;;;;;;5036672;28;19936;-84
2022/11/23 10:37:39;;;;;;;;;;;8.70;99.90;;;;;;5036354;28;20357;-85
2022/11/23 10:40:25;;;;;;;;;;;8.60;99.90;;;;;;5036670;28;20327;-85
2022/11/23 10:42:59;;;;;;;;;;;8.50;99.90;;;;;;5036595;28;19931;-84
2022/11/23 10:45:26;;;;;;;;;;;8.50;99.90;;;;;;5020394;28;19924;-85
2022/11/23 10:47:54;;;;;;;;;;;8.50;99.90;;;;;;5020573;28;20307;-86
2022/11/23 10:50:22;;;;;;;;;;;8.40;99.90;;;;;;5019773;28;19986;-85
2022/11/23 10:52:49;;;;;;;;;;;8.40;99.90;;;;;;5019919;28;19970;-84
2022/11/23 10:55:15;;;;;;;;;;;8.40;99.90;;;;;;5036563;28;19925;-84
2022/11/23 10:57:43;;;;;;;;;;;8.40;99.90;;;;;;5036924;28;20304;-84
2022/11/23 11:00:14;;;;;;;;;;;8.40;99.90;;;;;;5054153;28;19931;-85
2022/11/23 11:02:45;;;;;;;;;;;8.40;99.90;;;;;;5036582;28;19932;-84
2022/11/23 11:05:26;;;;;;;;;;;8.40;99.90;;;;;;5036595;28;19925;-84
2022/11/23 11:07:52;;;;;;;;;;;8.50;99.90;;;;;;5036691;28;19925;-84
2022/11/23 11:10:31;;;;;;;;;;;8.50;99.90;;;;;;5036294;28;19925;-84
2022/11/23 11:12:56;;;;;;;;;;;8.50;99.90;;;;;;5036329;28;19931;-84
2022/11/23 11:15:23;;;;;;;;;;;8.60;99.90;;;;;;5036821;28;19924;-84
2022/11/23 11:17:55;;;;;;;;;;;8.60;99.90;;;;;;5036337;28;20022;-84
2022/11/23 11:20:21;;;;;;;;;;;8.70;99.90;;;;;;5020838;28;20038;-85
2022/11/23 11:22:47;;;;;;;;;;;8.70;99.90;;;;;;5036300;28;19994;-84
2022/11/23 11:25:26;;;;;;;;;;;8.70;99.90;;;;;;5036890;28;19936;-84
2022/11/23 11:27:51;;;;;;;;;;;8.70;99.90;;;;;;5036579;28;19925;-84
2022/11/23 11:30:22;;;;;;;;;;;8.80;99.90;;;;;;5036146;28;20011;-85
2022/11/23 11:32:54;;;;;;;;;;;8.80;99.90;;;;;;5035742;28;20467;-83
2022/11/23 11:35:29;;;;;;;;;;;8.80;99.90;;;;;;5036508;28;19929;-84
2022/11/23 11:37:56;;;;;;;;;;;8.80;99.90;;;;;;5019314;28;19932;-83
2022/11/23 11:40:42;;;;;;;;;;;8.70;99.90;;;;;;5035870;28;19971;-84
2022/11/23 11:43:27;;;;;;;;;;;8.70;99.90;;;;;;5019010;28;19978;-84
2022/11/23 11:45:55;;;;;;;;;;;8.60;99.90;;;;;;5019699;28;19925;-84
2022/11/23 11:48:27;;;;;;;;;;;8.70;99.90;;;;;;5019725;28;19925;-84
2022/11/23 11:51:04;;;;;;;;;;;8.80;99.90;;;;;;5019333;28;19948;-84
2022/11/23 11:53:35;;;;;;;;;;;9.00;99.90;;;;;;5035952;28;19964;-85
2022/11/23 11:56:01;;;;;;;;;;;9.10;99.90;;;;;;5036196;28;20408;-85
2022/11/23 11:58:26;;;;;;;;;;;9.20;99.90;;;;;;5035952;28;19964;-84
2022/11/23 12:00:56;;;;;;;;;;;9.20;99.90;;;;;;5003765;28;19928;-83
2022/11/23 12:03:39;;;;;;;;;;;9.20;99.90;;;;;;5053454;28;19979;-84
2022/11/23 12:06:09;;;;;;;;;;;9.20;99.90;;;;;;5035502;28;19925;-84
2022/11/23 12:08:54;;;;;;;;;;;9.20;99.90;;;;;;5020184;28;19925;-83
2022/11/23 12:11:19;;;;;;;;;;;9.20;99.90;;;;;;5035557;28;19925;-84
2022/11/23 12:13:45;;;;;;;;;;;9.20;99.90;;;;;;5036183;28;20408;-84
2022/11/23 12:16:26;;;;;;;;;;;9.30;99.90;;;;;;5035998;28;19975;-83
2022/11/23 12:18:55;;;;;;;;;;;9.30;99.90;;;;;;5035403;28;19932;-84
2022/11/23 12:21:21;;;;;;;;;;;9.30;99.90;;;;;;5020126;28;19925;-84
2022/11/23 12:23:55;;;;;;;;;;;9.30;99.90;;;;;;5035870;28;19925;-84
2022/11/23 12:26:24;;;;;;;;;;;9.30;99.90;;;;;;5019458;28;19968;-84
2022/11/23 12:29:01;;;;;;;;;;;9.30;99.90;;;;;;5036284;28;19925;-83
2022/11/23 12:31:47;;;;;;;;;;;9.40;99.90;;;;;;5034911;28;20377;-83
2022/11/23 12:34:18;;;;;;;;;;;9.40;99.90;;;;;;5035667;28;19936;-83
2022/11/23 12:36:49;;;;;;;;;;;9.40;99.90;;;;;;5019519;28;19929;-83
2022/11/23 12:39:18;;;;;;;;;;;9.40;99.90;;;;;;5038380;28;19925;-86
2022/11/23 12:41:50;;;;;;;;;;;9.40;99.90;;;;;;5023461;28;19960;-85
2022/11/23 12:44:34;;;;;;;;;;;10.20;99.90;;;;;;5039089;28;19931;-84
2022/11/23 12:47:00;;;;;;;;;;;9.40;99.90;;;;;;5022537;28;19932;-85
2022/11/23 12:49:25;;;;;;;;;;;9.40;99.90;;;;;;5023301;28;19924;-84
2022/11/23 12:52:03;;;;;;;;;;;9.40;99.90;;;;;;5022186;28;20020;-86
2022/11/23 12:54:38;;;;;;;;;;;9.50;99.90;;;;;;5039856;28;20040;-86
2022/11/23 12:57:19;;;;;;;;;;;9.50;99.90;;;;;;5022753;28;20378;-85
2022/11/23 12:59:54;;;;;;;;;;;9.50;99.90;;;;;;5022657;28;20293;-85
2022/11/23 13:02:39;;;;;;;;;;;9.50;99.90;;;;;;5038773;28;19924;-85
2022/11/23 13:05:04;;;;;;;;;;;9.60;99.90;;;;;;5022043;28;19931;-84
2022/11/23 13:07:46;;;;;;;;;;;9.60;99.90;;;;;;5038641;28;20011;-85
2022/11/23 13:10:32;;;;;;;;;;;9.60;99.90;;;;;;5038591;28;19958;-86
2022/11/23 13:12:57;;;;;;;;;;;9.70;99.90;;;;;;5039044;28;19925;-84
2022/11/23 13:15:35;;;;;;;;;;;9.70;99.90;;;;;;5038268;28;19950;-84
2022/11/23 13:18:21;;;;;;;;;;;9.70;99.90;;;;;;5056230;28;19925;-83
2022/11/23 13:20:55;;;;;;;;;;;9.60;99.90;;;;;;5021117;28;20014;-84
2022/11/23 13:23:21;;;;;;;;;;;9.60;99.90;;;;;;5038402;28;19925;-84
2022/11/23 13:26:05;;;;;;;;;;;10.70;99.90;;;;;;5022449;28;19932;-84
2022/11/23 13:28:31;;;;;;;;;;;9.50;99.90;;;;;;5021260;28;20019;-83
2022/11/23 13:31:16;;;;;;;;;;;9.50;99.90;;;;;;5021914;28;20062;-84
2022/11/23 13:33:47;;;;;;;;;;;9.50;99.90;;;;;;5056009;28;20387;-85
2022/11/23 13:36:32;;;;;;;;;;;9.50;99.90;;;;;;5021826;28;20379;-85
2022/11/23 13:38:59;;;;;;;;;;;9.40;99.90;;;;;;5037401;28;20027;-84
2022/11/23 13:41:33;;;;;;;;;;;9.40;99.90;;;;;;5056088;28;20271;-85
2022/11/23 13:44:18;;;;;;;;;;;9.40;99.90;;;;;;5038438;28;19925;-84
2022/11/23 13:46:55;;;;;;;;;;;9.40;99.90;;;;;;5055722;28;19936;-84
2022/11/23 13:49:40;;;;;;;;;;;9.40;99.90;;;;;;5036802;28;19924;-85
2022/11/23 13:52:15;;;;;;;;;;;9.40;99.90;;;;;;5037723;28;19925;-85
2022/11/23 13:54:51;;;;;;;;;;;9.30;99.90;;;;;;5037863;28;19929;-85
2022/11/23 13:57:17;;;;;;;;;;;9.30;99.90;;;;;;5022106;28;19991;-84
2022/11/23 13:59:43;;;;;;;;;;;9.20;99.90;;;;;;5022099;28;19974;-85
2022/11/23 14:02:09;;;;;;;;;;;9.20;99.90;;;;;;5055173;28;20276;-84
2022/11/23 14:04:37;;;;;;;;;;;9.10;99.90;;;;;;5037126;28;19924;-85
2022/11/23 14:07:05;;;;;;;;;;;9.10;99.90;;;;;;5037144;28;19935;-85
2022/11/23 14:09:49;;;;;;;;;;;9.10;99.90;;;;;;5021045;28;19924;-85
2022/11/23 14:12:18;;;;;;;;;;;9.00;99.90;;;;;;5037284;28;19925;-84
2022/11/23 14:14:46;;;;;;;;;;;8.90;99.90;;;;;;5037505;28;19928;-85
2022/11/23 14:17:32;;;;;;;;;;;8.90;99.90;;;;;;5037358;28;20411;-84
2022/11/23 14:19:58;;;;;;;;;;;8.90;99.90;;;;;;5037648;28;19986;-86
2022/11/23 14:22:35;;;;;;;;;;;8.70;99.90;;;;;;5020810;28;20353;-85
2022/11/23 14:25:16;;;;;;;;;;;8.70;99.90;;;;;;5021243;28;20315;-87
2022/11/23 14:28:14;;;;;;;;;;;8.60;99.90;;;;;;5037497;28;20022;-86
2022/11/23 14:30:40;;;;;;;;;;;8.60;99.90;;;;;;4967227;28;19931;-85
2022/11/23 14:33:21;;;;;;;;;;;8.40;99.90;;;;;;5037104;28;19925;-85
2022/11/23 14:35:53;;;;;;;;;;;8.40;99.90;;;;;;5054745;28;19931;-84
2022/11/23 14:38:38;;;;;;;;;;;8.30;99.90;;;;;;5037657;28;20314;-84